sensor_id;sensor_type;location;lat;lon;timestamp;temperature;humidity
8043;DHT22;4064;48.132;11.366;2023-03-29T00:02:00;3.10;92.00
8043;DHT22;4064;48.132;11.366;2023-03-29T00:04:26;3.10;92.00
8043;DHT22;4064;48.132;11.366;2023-03-29T00:06:55;3.10;92.00
8043;DHT22;4064;48.132;11.366;2023-03-29T00:09:22;3.20;91.60
8043;DHT22;4064;48.132;11.366;2023-03-29T00:11:51;3.30;91.20
8043;DHT22;4064;48.132;11.366;2023-03-29T00:14:17;3.40;91.10
8043;DHT22;4064;48.132;11.366;2023-03-29T00:16:43;3.50;91.30
8043;DHT22;4064;48.132;11.366;2023-03-29T00:19:11;3.50;91.70
8043;DHT22;4064;48.132;11.366;2023-03-29T00:21:36;3.60;91.80
8043;DHT22;4064;48.132;11.366;2023-03-29T00:24:02;3.60;92.60
8043;DHT22;4064;48.132;11.366;2023-03-29T00:26:31;3.70;92.70
8043;DHT22;4064;48.132;11.366;2023-03-29T00:28:57;3.70;92.90
8043;DHT22;4064;48.132;11.366;2023-03-29T00:31:23;3.70;93.60
8043;DHT22;4064;48.132;11.366;2023-03-29T00:33:49;3.80;94.10
8043;DHT22;4064;48.132;11.366;2023-03-29T00:36:15;3.80;94.50
8043;DHT22;4064;48.132;11.366;2023-03-29T00:38:43;3.80;93.90
8043;DHT22;4064;48.132;11.366;2023-03-29T00:41:10;3.80;93.90
8043;DHT22;4064;48.132;11.366;2023-03-29T00:43:57;3.90;95.30
8043;DHT22;4064;48.132;11.366;2023-03-29T00:46:24;3.80;96.80
8043;DHT22;4064;48.132;11.366;2023-03-29T00:48:52;3.80;97.80
8043;DHT22;4064;48.132;11.366;2023-03-29T00:51:23;3.70;98.50
8043;DHT22;4064;48.132;11.366;2023-03-29T00:53:57;3.60;99.60
8043;DHT22;4064;48.132;11.366;2023-03-29T00:56:43;3.60;99.90
8043;DHT22;4064;48.132;11.366;2023-03-29T00:59:19;3.50;99.90
8043;DHT22;4064;48.132;11.366;2023-03-29T01:01:52;3.50;99.90
8043;DHT22;4064;48.132;11.366;2023-03-29T01:04:44;3.50;99.90
8043;DHT22;4064;48.132;11.366;2023-03-29T01:07:31;3.50;99.90
8043;DHT22;4064;48.132;11.366;2023-03-29T01:10:16;3.40;99.90
8043;DHT22;4064;48.132;11.366;2023-03-29T01:12:49;3.40;99.90
8043;DHT22;4064;48.132;11.366;2023-03-29T01:15:22;3.30;99.90
8043;DHT22;4064;48.132;11.366;2023-03-29T01:17:50;3.30;99.90
8043;DHT22;4064;48.132;11.366;2023-03-29T01:20:27;3.30;99.90
8043;DHT22;4064;48.132;11.366;2023-03-29T01:29:01;3.30;99.90
8043;DHT22;4064;48.132;11.366;2023-03-29T01:31:52;3.40;99.90
8043;DHT22;4064;48.132;11.366;2023-03-29T01:34:34;3.40;99.90
8043;DHT22;4064;48.132;11.366;2023-03-29T01:39:42;3.40;99.90
8043;DHT22;4064;48.132;11.366;2023-03-29T01:47:16;3.30;99.90
8043;DHT22;4064;48.132;11.366;2023-03-29T01:49:51;3.30;99.90
8043;DHT22;4064;48.132;11.366;2023-03-29T01:52:24;3.30;99.90
8043;DHT22;4064;48.132;11.366;2023-03-29T01:54:59;3.30;99.90
8043;DHT22;4064;48.132;11.366;2023-03-29T01:57:27;3.20;99.90
8043;DHT22;4064;48.132;11.366;2023-03-29T01:59:56;3.20;99.90
8043;DHT22;4064;48.132;11.366;2023-03-29T02:02:23;3.20;99.90
8043;DHT22;4064;48.132;11.366;2023-03-29T02:04:53;3.20;99.90
8043;DHT22;4064;48.132;11.366;2023-03-29T02:07:23;3.20;99.90
8043;DHT22;4064;48.132;11.366;2023-03-29T02:09:52;3.20;99.90
8043;DHT22;4064;48.132;11.366;2023-03-29T02:12:20;3.20;99.90
8043;DHT22;4064;48.132;11.366;2023-03-29T02:14:46;3.20;99.90
8043;DHT22;4064;48.132;11.366;2023-03-29T02:17:15;3.20;99.90
8043;DHT22;4064;48.132;11.366;2023-03-29T02:19:44;3.20;99.90
8043;DHT22;4064;48.132;11.366;2023-03-29T02:22:17;3.10;99.90
8043;DHT22;4064;48.132;11.366;2023-03-29T02:24:45;3.10;99.90
8043;DHT22;4064;48.132;11.366;2023-03-29T02:27:12;3.10;99.90
8043;DHT22;4064;48.132;11.366;2023-03-29T02:29:38;3.10;99.90
8043;DHT22;4064;48.132;11.366;2023-03-29T02:32:09;3.10;99.90
8043;DHT22;4064;48.132;11.366;2023-03-29T02:34:47;3.10;99.90
8043;DHT22;4064;48.132;11.366;2023-03-29T02:37:18;3.10;99.90
8043;DHT22;4064;48.132;11.366;2023-03-29T02:39:47;3.20;99.90
8043;DHT22;4064;48.132;11.366;2023-03-29T02:42:16;3.10;99.90
8043;DHT22;4064;48.132;11.366;2023-03-29T02:44:45;3.10;99.90
8043;DHT22;4064;48.132;11.366;2023-03-29T02:47:24;3.10;99.90
8043;DHT22;4064;48.132;11.366;2023-03-29T02:49:52;3.10;99.90
8043;DHT22;4064;48.132;11.366;2023-03-29T02:52:21;3.10;99.90
8043;DHT22;4064;48.132;11.366;2023-03-29T02:54:51;3.10;99.90
8043;DHT22;4064;48.132;11.366;2023-03-29T02:57:21;3.10;99.90
8043;DHT22;4064;48.132;11.366;2023-03-29T02:59:52;3.10;99.90
8043;DHT22;4064;48.132;11.366;2023-03-29T03:02:18;3.10;99.90
8043;DHT22;4064;48.132;11.366;2023-03-29T03:04:44;3.10;99.90
8043;DHT22;4064;48.132;11.366;2023-03-29T03:07:10;3.10;99.90
8043;DHT22;4064;48.132;11.366;2023-03-29T03:09:36;3.00;99.90
8043;DHT22;4064;48.132;11.366;2023-03-29T03:12:02;3.10;99.90
8043;DHT22;4064;48.132;11.366;2023-03-29T03:14:28;3.10;99.90
8043;DHT22;4064;48.132;11.366;2023-03-29T03:16:54;3.10;99.90
8043;DHT22;4064;48.132;11.366;2023-03-29T03:19:22;3.10;99.90
8043;DHT22;4064;48.132;11.366;2023-03-29T03:21:48;3.00;99.90
8043;DHT22;4064;48.132;11.366;2023-03-29T03:24:15;3.00;99.90
8043;DHT22;4064;48.132;11.366;2023-03-29T03:26:42;2.90;99.90
8043;DHT22;4064;48.132;11.366;2023-03-29T03:29:13;2.90;99.90
8043;DHT22;4064;48.132;11.366;2023-03-29T03:31:38;2.90;99.90
8043;DHT22;4064;48.132;11.366;2023-03-29T03:34:07;2.90;99.90
8043;DHT22;4064;48.132;11.366;2023-03-29T03:36:34;2.80;99.90
8043;DHT22;4064;48.132;11.366;2023-03-29T03:39:00;2.80;99.90
8043;DHT22;4064;48.132;11.366;2023-03-29T03:41:27;2.80;99.90
8043;DHT22;4064;48.132;11.366;2023-03-29T03:43:54;2.80;99.90
8043;DHT22;4064;48.132;11.366;2023-03-29T03:46:19;2.80;99.90
8043;DHT22;4064;48.132;11.366;2023-03-29T03:48:46;2.80;99.90
8043;DHT22;4064;48.132;11.366;2023-03-29T03:51:12;2.80;99.90
8043;DHT22;4064;48.132;11.366;2023-03-29T03:53:38;2.80;99.90
8043;DHT22;4064;48.132;11.366;2023-03-29T03:56:05;2.80;99.90
8043;DHT22;4064;48.132;11.366;2023-03-29T03:58:35;2.80;99.90
8043;DHT22;4064;48.132;11.366;2023-03-29T04:01:03;2.90;99.90
8043;DHT22;4064;48.132;11.366;2023-03-29T04:03:29;2.90;99.90
8043;DHT22;4064;48.132;11.366;2023-03-29T04:05:59;3.00;99.90
8043;DHT22;4064;48.132;11.366;2023-03-29T04:08:25;3.10;99.90
8043;DHT22;4064;48.132;11.366;2023-03-29T04:10:53;3.20;99.90
8043;DHT22;4064;48.132;11.366;2023-03-29T04:13:20;3.30;99.90
8043;DHT22;4064;48.132;11.366;2023-03-29T04:15:47;3.40;99.90
8043;DHT22;4064;48.132;11.366;2023-03-29T04:18:23;3.50;99.90
8043;DHT22;4064;48.132;11.366;2023-03-29T04:20:49;3.70;99.90
8043;DHT22;4064;48.132;11.366;2023-03-29T04:23:16;3.90;99.90
8043;DHT22;4064;48.132;11.366;2023-03-29T04:25:43;4.00;99.90
8043;DHT22;4064;48.132;11.366;2023-03-29T04:28:11;4.10;99.90
8043;DHT22;4064;48.132;11.366;2023-03-29T04:30:37;4.20;99.90
8043;DHT22;4064;48.132;11.366;2023-03-29T04:33:03;4.30;99.90
8043;DHT22;4064;48.132;11.366;2023-03-29T04:35:29;4.40;99.90
8043;DHT22;4064;48.132;11.366;2023-03-29T04:37:55;4.50;99.90
8043;DHT22;4064;48.132;11.366;2023-03-29T04:40:21;4.60;99.90
8043;DHT22;4064;48.132;11.366;2023-03-29T04:42:47;4.70;99.90
8043;DHT22;4064;48.132;11.366;2023-03-29T04:45:13;4.70;99.90
8043;DHT22;4064;48.132;11.366;2023-03-29T04:47:43;4.80;99.90
8043;DHT22;4064;48.132;11.366;2023-03-29T04:50:10;4.80;99.90
8043;DHT22;4064;48.132;11.366;2023-03-29T04:52:36;4.90;99.90
8043;DHT22;4064;48.132;11.366;2023-03-29T04:55:02;4.90;99.90
8043;DHT22;4064;48.132;11.366;2023-03-29T04:57:30;5.00;99.90
8043;DHT22;4064;48.132;11.366;2023-03-29T04:59:56;5.00;99.90
8043;DHT22;4064;48.132;11.366;2023-03-29T05:02:22;5.00;99.90
8043;DHT22;4064;48.132;11.366;2023-03-29T05:04:48;5.00;99.90
8043;DHT22;4064;48.132;11.366;2023-03-29T05:07:15;5.10;99.90
8043;DHT22;4064;48.132;11.366;2023-03-29T05:09:42;5.10;99.90
8043;DHT22;4064;48.132;11.366;2023-03-29T05:12:08;5.10;99.90
8043;DHT22;4064;48.132;11.366;2023-03-29T05:14:34;5.10;99.90
8043;DHT22;4064;48.132;11.366;2023-03-29T05:17:00;5.20;99.90
8043;DHT22;4064;48.132;11.366;2023-03-29T05:19:26;5.20;99.90
8043;DHT22;4064;48.132;11.366;2023-03-29T05:21:52;5.20;99.90
8043;DHT22;4064;48.132;11.366;2023-03-29T05:24:19;5.20;99.90
8043;DHT22;4064;48.132;11.366;2023-03-29T05:26:45;5.30;99.90
8043;DHT22;4064;48.132;11.366;2023-03-29T05:29:18;5.30;99.90
8043;DHT22;4064;48.132;11.366;2023-03-29T05:31:44;5.40;99.90
8043;DHT22;4064;48.132;11.366;2023-03-29T05:34:11;5.40;99.90
8043;DHT22;4064;48.132;11.366;2023-03-29T05:36:37;5.40;99.90
8043;DHT22;4064;48.132;11.366;2023-03-29T05:39:04;5.40;99.90
8043;DHT22;4064;48.132;11.366;2023-03-29T05:41:31;5.50;99.90
8043;DHT22;4064;48.132;11.366;2023-03-29T05:43:57;5.50;99.90
8043;DHT22;4064;48.132;11.366;2023-03-29T05:46:24;5.50;99.90
8043;DHT22;4064;48.132;11.366;2023-03-29T05:48:50;5.50;99.90
8043;DHT22;4064;48.132;11.366;2023-03-29T05:51:16;5.60;99.90
8043;DHT22;4064;48.132;11.366;2023-03-29T05:53:43;5.60;99.90
8043;DHT22;4064;48.132;11.366;2023-03-29T05:56:10;5.60;99.90
8043;DHT22;4064;48.132;11.366;2023-03-29T05:58:36;5.70;99.90
8043;DHT22;4064;48.132;11.366;2023-03-29T06:01:04;5.70;99.90
8043;DHT22;4064;48.132;11.366;2023-03-29T06:03:36;5.70;99.90
8043;DHT22;4064;48.132;11.366;2023-03-29T06:06:02;5.70;99.90
8043;DHT22;4064;48.132;11.366;2023-03-29T06:08:29;5.70;99.90
8043;DHT22;4064;48.132;11.366;2023-03-29T06:10:57;5.70;99.90
8043;DHT22;4064;48.132;11.366;2023-03-29T06:13:26;5.80;99.90
8043;DHT22;4064;48.132;11.366;2023-03-29T06:15:52;5.80;99.90
8043;DHT22;4064;48.132;11.366;2023-03-29T06:18:18;5.80;99.90
8043;DHT22;4064;48.132;11.366;2023-03-29T06:20:48;5.80;99.90
8043;DHT22;4064;48.132;11.366;2023-03-29T06:23:17;5.90;99.90
8043;DHT22;4064;48.132;11.366;2023-03-29T06:25:44;5.90;99.90
8043;DHT22;4064;48.132;11.366;2023-03-29T06:28:12;5.90;99.90
8043;DHT22;4064;48.132;11.366;2023-03-29T06:30:39;6.00;99.90
8043;DHT22;4064;48.132;11.366;2023-03-29T06:33:07;6.10;99.90
8043;DHT22;4064;48.132;11.366;2023-03-29T06:35:35;6.20;99.90
8043;DHT22;4064;48.132;11.366;2023-03-29T06:38:03;6.20;99.90
8043;DHT22;4064;48.132;11.366;2023-03-29T06:40:29;6.40;99.90
8043;DHT22;4064;48.132;11.366;2023-03-29T06:42:56;6.50;99.90
8043;DHT22;4064;48.132;11.366;2023-03-29T06:45:25;6.70;99.90
8043;DHT22;4064;48.132;11.366;2023-03-29T06:47:53;6.90;99.90
8043;DHT22;4064;48.132;11.366;2023-03-29T06:50:19;7.10;99.90
8043;DHT22;4064;48.132;11.366;2023-03-29T06:52:45;7.20;99.90
8043;DHT22;4064;48.132;11.366;2023-03-29T06:55:12;7.20;99.90
8043;DHT22;4064;48.132;11.366;2023-03-29T06:57:38;7.40;99.90
8043;DHT22;4064;48.132;11.366;2023-03-29T07:00:06;7.50;99.90
8043;DHT22;4064;48.132;11.366;2023-03-29T07:02:53;7.70;99.90
8043;DHT22;4064;48.132;11.366;2023-03-29T07:05:20;7.90;99.90
8043;DHT22;4064;48.132;11.366;2023-03-29T07:07:46;8.00;99.90
8043;DHT22;4064;48.132;11.366;2023-03-29T07:10:20;8.10;99.90
8043;DHT22;4064;48.132;11.366;2023-03-29T07:12:50;8.00;99.90
8043;DHT22;4064;48.132;11.366;2023-03-29T07:15:16;8.00;99.90
8043;DHT22;4064;48.132;11.366;2023-03-29T07:17:42;8.00;99.90
8043;DHT22;4064;48.132;11.366;2023-03-29T07:20:09;8.00;99.90
8043;DHT22;4064;48.132;11.366;2023-03-29T07:22:42;8.00;99.90
8043;DHT22;4064;48.132;11.366;2023-03-29T07:25:09;8.10;99.90
8043;DHT22;4064;48.132;11.366;2023-03-29T07:27:38;8.10;99.90
8043;DHT22;4064;48.132;11.366;2023-03-29T07:30:06;8.20;99.90
8043;DHT22;4064;48.132;11.366;2023-03-29T07:32:36;8.20;99.90
8043;DHT22;4064;48.132;11.366;2023-03-29T07:35:07;8.30;99.90
8043;DHT22;4064;48.132;11.366;2023-03-29T07:37:36;8.30;99.90
8043;DHT22;4064;48.132;11.366;2023-03-29T07:40:05;8.30;99.90
8043;DHT22;4064;48.132;11.366;2023-03-29T07:42:35;8.30;99.90
8043;DHT22;4064;48.132;11.366;2023-03-29T07:45:05;8.30;99.90
8043;DHT22;4064;48.132;11.366;2023-03-29T07:47:33;8.30;99.90
8043;DHT22;4064;48.132;11.366;2023-03-29T07:50:00;8.30;99.90
8043;DHT22;4064;48.132;11.366;2023-03-29T07:52:27;8.30;99.90
8043;DHT22;4064;48.132;11.366;2023-03-29T07:54:54;8.40;99.90
8043;DHT22;4064;48.132;11.366;2023-03-29T07:57:41;8.50;99.90
8043;DHT22;4064;48.132;11.366;2023-03-29T08:00:10;8.50;99.90
8043;DHT22;4064;48.132;11.366;2023-03-29T08:02:49;8.50;99.90
8043;DHT22;4064;48.132;11.366;2023-03-29T08:05:17;8.50;99.90
8043;DHT22;4064;48.132;11.366;2023-03-29T08:07:45;8.40;99.90
8043;DHT22;4064;48.132;11.366;2023-03-29T08:10:14;8.40;99.90
8043;DHT22;4064;48.132;11.366;2023-03-29T08:12:40;8.40;99.90
8043;DHT22;4064;48.132;11.366;2023-03-29T08:15:07;8.30;99.90
8043;DHT22;4064;48.132;11.366;2023-03-29T08:17:34;8.30;99.90
8043;DHT22;4064;48.132;11.366;2023-03-29T08:20:01;8.30;99.90
8043;DHT22;4064;48.132;11.366;2023-03-29T08:22:27;8.30;99.90
8043;DHT22;4064;48.132;11.366;2023-03-29T08:24:54;8.30;99.90
8043;DHT22;4064;48.132;11.366;2023-03-29T08:27:19;8.30;99.90
8043;DHT22;4064;48.132;11.366;2023-03-29T08:29:45;8.30;99.90
8043;DHT22;4064;48.132;11.366;2023-03-29T08:32:11;8.40;99.90
8043;DHT22;4064;48.132;11.366;2023-03-29T08:34:37;8.40;99.90
8043;DHT22;4064;48.132;11.366;2023-03-29T08:37:03;8.50;99.90
8043;DHT22;4064;48.132;11.366;2023-03-29T08:39:29;8.60;99.90
8043;DHT22;4064;48.132;11.366;2023-03-29T08:44:58;9.10;99.90
8043;DHT22;4064;48.132;11.366;2023-03-29T08:50:06;10.20;97.40
8043;DHT22;4064;48.132;11.366;2023-03-29T08:52:53;10.60;96.50
8043;DHT22;4064;48.132;11.366;2023-03-29T08:55:44;10.80;96.30
8043;DHT22;4064;48.132;11.366;2023-03-29T08:58:17;10.80;95.70
8043;DHT22;4064;48.132;11.366;2023-03-29T09:00:53;10.70;95.40
8043;DHT22;4064;48.132;11.366;2023-03-29T09:03:48;10.70;95.70
8043;DHT22;4064;48.132;11.366;2023-03-29T09:06:15;10.50;95.50
8043;DHT22;4064;48.132;11.366;2023-03-29T09:08:47;10.30;95.20
8043;DHT22;4064;48.132;11.366;2023-03-29T09:19:28;10.10;95.90
8043;DHT22;4064;48.132;11.366;2023-03-29T09:22:05;10.10;95.80
8043;DHT22;4064;48.132;11.366;2023-03-29T09:27:27;10.10;96.10
8043;DHT22;4064;48.132;11.366;2023-03-29T09:30:38;10.20;95.70
8043;DHT22;4064;48.132;11.366;2023-03-29T09:35:57;10.50;94.90
8043;DHT22;4064;48.132;11.366;2023-03-29T09:38:40;10.60;95.20
8043;DHT22;4064;48.132;11.366;2023-03-29T09:41:26;10.70;94.80
8043;DHT22;4064;48.132;11.366;2023-03-29T09:43:56;10.80;94.60
8043;DHT22;4064;48.132;11.366;2023-03-29T09:46:54;11.10;94.80
8043;DHT22;4064;48.132;11.366;2023-03-29T09:49:45;11.60;94.70
8043;DHT22;4064;48.132;11.366;2023-03-29T09:52:30;12.10;93.30
8043;DHT22;4064;48.132;11.366;2023-03-29T09:54:56;12.20;92.90
8043;DHT22;4064;48.132;11.366;2023-03-29T09:57:25;12.10;91.00
8043;DHT22;4064;48.132;11.366;2023-03-29T09:59:51;11.90;91.00
8043;DHT22;4064;48.132;11.366;2023-03-29T10:02:38;11.80;91.10
8043;DHT22;4064;48.132;11.366;2023-03-29T10:05:05;11.80;90.80
8043;DHT22;4064;48.132;11.366;2023-03-29T10:07:40;11.70;90.70
8043;DHT22;4064;48.132;11.366;2023-03-29T10:10:13;11.70;90.40
8043;DHT22;4064;48.132;11.366;2023-03-29T10:13:04;11.80;89.80
8043;DHT22;4064;48.132;11.366;2023-03-29T10:15:31;11.70;88.60
8043;DHT22;4064;48.132;11.366;2023-03-29T10:18:05;11.70;88.50
8043;DHT22;4064;48.132;11.366;2023-03-29T10:20:34;11.70;88.60
8043;DHT22;4064;48.132;11.366;2023-03-29T10:23:21;11.70;88.50
8043;DHT22;4064;48.132;11.366;2023-03-29T10:25:47;11.70;87.80
8043;DHT22;4064;48.132;11.366;2023-03-29T10:28:17;11.80;87.30
8043;DHT22;4064;48.132;11.366;2023-03-29T10:30:52;11.90;87.40
8043;DHT22;4064;48.132;11.366;2023-03-29T10:33:38;12.00;86.10
8043;DHT22;4064;48.132;11.366;2023-03-29T10:36:06;12.20;86.30
8043;DHT22;4064;48.132;11.366;2023-03-29T10:38:34;12.40;86.50
8043;DHT22;4064;48.132;11.366;2023-03-29T10:41:11;12.70;84.40
8043;DHT22;4064;48.132;11.366;2023-03-29T10:43:42;13.00;83.40
8043;DHT22;4064;48.132;11.366;2023-03-29T10:46:31;13.10;82.10
8043;DHT22;4064;48.132;11.366;2023-03-29T10:49:04;13.20;81.70
8043;DHT22;4064;48.132;11.366;2023-03-29T10:51:34;13.20;80.50
8043;DHT22;4064;48.132;11.366;2023-03-29T10:54:02;13.40;81.20
8043;DHT22;4064;48.132;11.366;2023-03-29T10:56:41;13.60;78.70
8043;DHT22;4064;48.132;11.366;2023-03-29T11:04:46;13.80;76.90
8043;DHT22;4064;48.132;11.366;2023-03-29T11:12:57;14.20;76.30
8043;DHT22;4064;48.132;11.366;2023-03-29T11:21:44;14.60;73.90
8043;DHT22;4064;48.132;11.366;2023-03-29T11:25:03;14.60;71.60
8043;DHT22;4064;48.132;11.366;2023-03-29T11:32:45;14.80;69.30
8043;DHT22;4064;48.132;11.366;2023-03-29T11:38:41;14.70;67.30
8043;DHT22;4064;48.132;11.366;2023-03-29T11:41:39;14.60;63.50
8043;DHT22;4064;48.132;11.366;2023-03-29T11:44:30;14.30;63.40
8043;DHT22;4064;48.132;11.366;2023-03-29T11:47:07;14.20;65.70
8043;DHT22;4064;48.132;11.366;2023-03-29T11:49:44;14.20;65.60
8043;DHT22;4064;48.132;11.366;2023-03-29T11:52:18;14.20;66.20
8043;DHT22;4064;48.132;11.366;2023-03-29T11:55:04;14.20;65.60
8043;DHT22;4064;48.132;11.366;2023-03-29T11:57:50;14.40;66.20
8043;DHT22;4064;48.132;11.366;2023-03-29T12:00:30;14.60;65.40
8043;DHT22;4064;48.132;11.366;2023-03-29T12:03:55;14.80;66.40
8043;DHT22;4064;48.132;11.366;2023-03-29T12:06:11;15.10;66.20
8043;DHT22;4064;48.132;11.366;2023-03-29T12:08:43;15.40;66.00
8043;DHT22;4064;48.132;11.366;2023-03-29T12:14:04;15.80;64.40
8043;DHT22;4064;48.132;11.366;2023-03-29T12:16:47;15.70;62.90
8043;DHT22;4064;48.132;11.366;2023-03-29T12:21:59;15.50;60.70
8043;DHT22;4064;48.132;11.366;2023-03-29T12:24:30;15.50;60.90
8043;DHT22;4064;48.132;11.366;2023-03-29T12:27:07;15.40;61.10
8043;DHT22;4064;48.132;11.366;2023-03-29T12:37:38;15.20;60.40
8043;DHT22;4064;48.132;11.366;2023-03-29T12:40:11;15.00;60.00
8043;DHT22;4064;48.132;11.366;2023-03-29T12:42:51;15.00;61.30
8043;DHT22;4064;48.132;11.366;2023-03-29T12:45:27;14.90;61.40
8043;DHT22;4064;48.132;11.366;2023-03-29T12:47:54;14.80;61.50
8043;DHT22;4064;48.132;11.366;2023-03-29T12:50:53;14.90;62.20
8043;DHT22;4064;48.132;11.366;2023-03-29T12:56:22;15.00;62.30
8043;DHT22;4064;48.132;11.366;2023-03-29T12:59:03;15.10;62.30
8043;DHT22;4064;48.132;11.366;2023-03-29T13:01:39;15.50;63.30
8043;DHT22;4064;48.132;11.366;2023-03-29T13:04:16;15.90;62.30
8043;DHT22;4064;48.132;11.366;2023-03-29T13:09:46;16.50;61.70
8043;DHT22;4064;48.132;11.366;2023-03-29T13:14:44;17.20;59.80
8043;DHT22;4064;48.132;11.366;2023-03-29T13:26:16;16.70;59.30
8043;DHT22;4064;48.132;11.366;2023-03-29T13:39:53;16.70;58.80
8043;DHT22;4064;48.132;11.366;2023-03-29T13:47:46;16.10;52.30
8043;DHT22;4064;48.132;11.366;2023-03-29T13:50:17;15.80;51.00
8043;DHT22;4064;48.132;11.366;2023-03-29T13:53:02;15.50;50.60
8043;DHT22;4064;48.132;11.366;2023-03-29T13:55:32;15.20;50.80
8043;DHT22;4064;48.132;11.366;2023-03-29T13:58:11;15.10;52.20
8043;DHT22;4064;48.132;11.366;2023-03-29T14:00:49;14.90;52.60
8043;DHT22;4064;48.132;11.366;2023-03-29T14:03:20;14.80;53.30
8043;DHT22;4064;48.132;11.366;2023-03-29T14:05:58;14.70;53.80
8043;DHT22;4064;48.132;11.366;2023-03-29T14:08:36;14.60;53.60
8043;DHT22;4064;48.132;11.366;2023-03-29T14:11:04;14.50;53.90
8043;DHT22;4064;48.132;11.366;2023-03-29T14:13:32;14.50;54.50
8043;DHT22;4064;48.132;11.366;2023-03-29T14:16:05;14.50;55.20
8043;DHT22;4064;48.132;11.366;2023-03-29T14:18:38;14.50;55.60
8043;DHT22;4064;48.132;11.366;2023-03-29T14:21:05;14.70;56.10
8043;DHT22;4064;48.132;11.366;2023-03-29T14:23:36;14.90;56.60
8043;DHT22;4064;48.132;11.366;2023-03-29T14:26:08;15.00;56.70
8043;DHT22;4064;48.132;11.366;2023-03-29T14:28:36;15.10;56.90
8043;DHT22;4064;48.132;11.366;2023-03-29T14:31:19;15.10;56.70
8043;DHT22;4064;48.132;11.366;2023-03-29T14:33:54;15.10;56.90
8043;DHT22;4064;48.132;11.366;2023-03-29T14:36:37;15.10;56.90
8043;DHT22;4064;48.132;11.366;2023-03-29T14:39:23;14.90;57.10
8043;DHT22;4064;48.132;11.366;2023-03-29T14:41:52;14.80;56.90
8043;DHT22;4064;48.132;11.366;2023-03-29T14:44:21;14.80;57.30
8043;DHT22;4064;48.132;11.366;2023-03-29T14:46:47;14.70;57.80
8043;DHT22;4064;48.132;11.366;2023-03-29T14:49:18;14.60;58.10
8043;DHT22;4064;48.132;11.366;2023-03-29T14:51:46;14.50;58.40
8043;DHT22;4064;48.132;11.366;2023-03-29T14:54:22;14.30;58.50
8043;DHT22;4064;48.132;11.366;2023-03-29T14:56:50;14.20;59.90
8043;DHT22;4064;48.132;11.366;2023-03-29T15:01:57;13.90;62.80
8043;DHT22;4064;48.132;11.366;2023-03-29T15:04:22;13.70;64.20
8043;DHT22;4064;48.132;11.366;2023-03-29T15:06:49;13.40;66.80
8043;DHT22;4064;48.132;11.366;2023-03-29T15:09:26;13.30;68.80
8043;DHT22;4064;48.132;11.366;2023-03-29T15:11:55;13.10;71.40
8043;DHT22;4064;48.132;11.366;2023-03-29T15:14:22;12.90;73.00
8043;DHT22;4064;48.132;11.366;2023-03-29T15:16:50;12.60;75.70
8043;DHT22;4064;48.132;11.366;2023-03-29T15:19:20;12.40;77.50
8043;DHT22;4064;48.132;11.366;2023-03-29T15:21:49;12.10;79.90
8043;DHT22;4064;48.132;11.366;2023-03-29T15:24:32;11.80;80.70
8043;DHT22;4064;48.132;11.366;2023-03-29T15:27:03;11.60;83.50
8043;DHT22;4064;48.132;11.366;2023-03-29T15:29:38;11.40;85.00
8043;DHT22;4064;48.132;11.366;2023-03-29T15:32:19;11.30;88.00
8043;DHT22;4064;48.132;11.366;2023-03-29T15:35:04;11.20;90.10
8043;DHT22;4064;48.132;11.366;2023-03-29T15:37:31;11.20;91.30
8043;DHT22;4064;48.132;11.366;2023-03-29T15:39:57;11.20;91.90
8043;DHT22;4064;48.132;11.366;2023-03-29T15:42:24;11.20;92.30
8043;DHT22;4064;48.132;11.366;2023-03-29T15:44:54;11.10;92.50
8043;DHT22;4064;48.132;11.366;2023-03-29T15:47:21;11.10;93.30
8043;DHT22;4064;48.132;11.366;2023-03-29T15:49:48;11.10;93.20
8043;DHT22;4064;48.132;11.366;2023-03-29T15:52:15;11.10;93.50
8043;DHT22;4064;48.132;11.366;2023-03-29T15:54:41;11.10;93.40
8043;DHT22;4064;48.132;11.366;2023-03-29T15:57:13;11.10;94.10
8043;DHT22;4064;48.132;11.366;2023-03-29T15:59:42;11.10;93.60
8043;DHT22;4064;48.132;11.366;2023-03-29T16:02:12;11.00;93.90
8043;DHT22;4064;48.132;11.366;2023-03-29T16:04:40;11.00;94.50
8043;DHT22;4064;48.132;11.366;2023-03-29T16:07:12;11.00;94.60
8043;DHT22;4064;48.132;11.366;2023-03-29T16:09:39;10.90;94.80
8043;DHT22;4064;48.132;11.366;2023-03-29T16:12:05;10.90;95.30
8043;DHT22;4064;48.132;11.366;2023-03-29T16:14:33;10.80;95.40
8043;DHT22;4064;48.132;11.366;2023-03-29T16:17:00;10.80;95.70
8043;DHT22;4064;48.132;11.366;2023-03-29T16:19:29;10.70;96.20
8043;DHT22;4064;48.132;11.366;2023-03-29T16:21:57;10.70;96.20
8043;DHT22;4064;48.132;11.366;2023-03-29T16:24:28;10.60;96.90
8043;DHT22;4064;48.132;11.366;2023-03-29T16:26:54;10.60;97.30
8043;DHT22;4064;48.132;11.366;2023-03-29T16:29:21;10.50;97.40
8043;DHT22;4064;48.132;11.366;2023-03-29T16:31:52;10.50;97.50
8043;DHT22;4064;48.132;11.366;2023-03-29T16:34:20;10.50;97.70
8043;DHT22;4064;48.132;11.366;2023-03-29T16:36:47;10.40;98.30
8043;DHT22;4064;48.132;11.366;2023-03-29T16:39:15;10.40;98.70
8043;DHT22;4064;48.132;11.366;2023-03-29T16:41:42;10.50;99.20
8043;DHT22;4064;48.132;11.366;2023-03-29T16:44:17;10.40;99.30
8043;DHT22;4064;48.132;11.366;2023-03-29T16:46:44;10.40;99.60
8043;DHT22;4064;48.132;11.366;2023-03-29T16:49:14;10.40;99.90
8043;DHT22;4064;48.132;11.366;2023-03-29T16:51:44;10.40;99.90
8043;DHT22;4064;48.132;11.366;2023-03-29T16:54:11;10.30;99.90
8043;DHT22;4064;48.132;11.366;2023-03-29T16:56:38;10.30;99.90
8043;DHT22;4064;48.132;11.366;2023-03-29T16:59:04;10.20;99.90
8043;DHT22;4064;48.132;11.366;2023-03-29T17:01:30;10.10;99.90
8043;DHT22;4064;48.132;11.366;2023-03-29T17:03:56;10.10;99.90
8043;DHT22;4064;48.132;11.366;2023-03-29T17:06:22;10.10;99.90
8043;DHT22;4064;48.132;11.366;2023-03-29T17:08:48;10.10;99.90
8043;DHT22;4064;48.132;11.366;2023-03-29T17:11:15;10.00;99.90
8043;DHT22;4064;48.132;11.366;2023-03-29T17:13:41;10.00;99.90
8043;DHT22;4064;48.132;11.366;2023-03-29T17:16:08;10.00;99.90
8043;DHT22;4064;48.132;11.366;2023-03-29T17:18:34;10.00;99.90
8043;DHT22;4064;48.132;11.366;2023-03-29T17:21:00;10.00;99.90
8043;DHT22;4064;48.132;11.366;2023-03-29T17:23:26;9.90;99.90
8043;DHT22;4064;48.132;11.366;2023-03-29T17:25:53;9.90;99.90
8043;DHT22;4064;48.132;11.366;2023-03-29T17:28:20;9.90;99.90
8043;DHT22;4064;48.132;11.366;2023-03-29T17:30:46;9.90;99.90
8043;DHT22;4064;48.132;11.366;2023-03-29T17:33:12;9.90;99.90
8043;DHT22;4064;48.132;11.366;2023-03-29T17:35:42;9.80;99.90
8043;DHT22;4064;48.132;11.366;2023-03-29T17:38:08;9.80;99.90
8043;DHT22;4064;48.132;11.366;2023-03-29T17:40:34;9.80;99.90
8043;DHT22;4064;48.132;11.366;2023-03-29T17:43:00;9.80;99.90
8043;DHT22;4064;48.132;11.366;2023-03-29T17:45:26;9.80;99.90
8043;DHT22;4064;48.132;11.366;2023-03-29T17:47:52;9.80;99.90
8043;DHT22;4064;48.132;11.366;2023-03-29T17:50:18;9.70;99.90
8043;DHT22;4064;48.132;11.366;2023-03-29T17:52:44;9.70;99.90
8043;DHT22;4064;48.132;11.366;2023-03-29T17:55:10;9.70;99.90
8043;DHT22;4064;48.132;11.366;2023-03-29T17:57:38;9.70;99.90
8043;DHT22;4064;48.132;11.366;2023-03-29T18:00:06;9.60;99.90
8043;DHT22;4064;48.132;11.366;2023-03-29T18:02:33;9.60;99.90
8043;DHT22;4064;48.132;11.366;2023-03-29T18:04:58;9.60;99.90
8043;DHT22;4064;48.132;11.366;2023-03-29T18:07:29;9.50;99.90